Time;durP1;ratioP1;P1;durP2;ratioP2;P2;SDS_P1;SDS_P2;PMS_P1;PMS_P2;Temp;Humidity;BMP_temperature;BMP_pressure;BME280_temperature;BME280_humidity;BME280_pressure;Samples;Min_cycle;Max_cycle;Signal;HPM_P1;HPM_P2
2023/05/23 00:00:57;;;;;;;57.45;38.65;;;14.80;99.90;;;-148.53;100.00;63986.66;5053899;28;20037;-74
2023/05/23 00:03:25;;;;;;;56.25;38.25;;;14.90;99.90;;;-148.53;100.00;63986.66;5052579;28;20041;-74
2023/05/23 00:05:51;;;;;;;58.50;41.00;;;14.90;99.90;;;-148.53;100.00;63986.66;5051337;28;20130;-74
2023/05/23 00:08:17;;;;;;;63.50;40.17;;;15.00;99.90;;;-148.53;100.00;63986.66;5052427;28;20492;-74
2023/05/23 00:10:44;;;;;;;65.43;41.95;;;15.00;99.90;;;-148.53;100.00;63986.66;5058539;28;20060;-74
2023/05/23 00:13:13;;;;;;;62.47;40.10;;;15.10;99.90;;;-148.53;100.00;63986.66;5052726;28;20071;-74
2023/05/23 00:15:41;;;;;;;61.83;38.88;;;15.20;99.90;;;-148.53;100.00;63986.66;5059224;28;20045;-74
2023/05/23 00:18:10;;;;;;;66.72;41.00;;;15.30;99.90;;;-148.53;100.00;63986.66;5052560;28;20108;-74
2023/05/23 00:20:42;;;;;;;66.15;39.20;;;15.30;99.90;;;-148.53;100.00;63986.66;5050918;28;20041;-74
2023/05/23 00:23:10;;;;;;;67.43;39.42;;;15.30;99.90;;;-148.53;100.00;63986.66;5050434;28;20037;-74
2023/05/23 00:25:36;;;;;;;63.92;38.38;;;15.40;99.90;;;-148.53;100.00;63986.66;5051430;28;20036;-74
2023/05/23 00:28:03;;;;;;;64.35;38.45;;;15.40;99.90;;;-148.53;100.00;63986.66;5050886;28;20040;-74
2023/05/23 00:30:31;;;;;;;64.50;38.55;;;15.40;99.90;;;-148.53;100.00;63986.66;5051193;28;20051;-74
2023/05/23 00:32:57;;;;;;;64.43;37.83;;;15.50;99.90;;;-148.53;100.00;63986.66;5054597;28;20041;-74
2023/05/23 00:35:23;;;;;;;67.47;38.92;;;15.50;99.90;;;-148.53;100.00;63986.66;5059131;28;20488;-74
2023/05/23 00:37:50;;;;;;;59.92;36.58;;;15.50;99.90;;;-148.53;100.00;63986.66;5053966;28;20041;-74
2023/05/23 00:40:18;;;;;;;57.58;36.53;;;15.60;99.90;;;-148.53;100.00;63986.66;5060699;28;20033;-74
2023/05/23 00:42:44;;;;;;;58.97;36.42;;;15.50;99.90;;;-148.53;100.00;63986.66;5062052;28;20040;-74
2023/05/23 00:45:13;;;;;;;61.15;37.15;;;15.60;99.90;;;-148.53;100.00;63986.66;5055728;28;20024;-74
2023/05/23 00:47:41;;;;;;;62.22;36.67;;;15.60;99.90;;;-148.53;100.00;63986.66;5057005;28;20036;-74
2023/05/23 00:50:11;;;;;;;61.47;35.58;;;15.60;99.90;;;-148.53;100.00;63986.66;5057914;28;20185;-74
2023/05/23 00:52:38;;;;;;;70.45;37.72;;;15.60;99.90;;;-148.53;100.00;63986.66;5055235;28;20053;-74
2023/05/23 00:55:04;;;;;;;64.53;37.83;;;15.60;99.90;;;-148.53;100.00;63986.66;5055309;28;20033;-74
2023/05/23 00:57:33;;;;;;;61.10;35.55;;;15.60;99.90;;;-148.53;100.00;63986.66;5050783;28;20029;-74
2023/05/23 01:00:00;;;;;;;67.43;39.08;;;15.60;99.90;;;-148.53;100.00;63986.66;5054190;28;20576;-74
2023/05/23 01:02:27;;;;;;;71.00;39.80;;;15.60;99.90;;;-148.53;100.00;63986.66;5054975;28;20039;-74
2023/05/23 01:04:54;;;;;;;93.30;49.17;;;15.60;99.90;;;-148.53;100.00;63986.66;5069310;28;20095;-75
2023/05/23 01:07:20;;;;;;;107.88;52.83;;;15.60;99.90;;;-148.53;100.00;63986.66;5071277;28;20040;-75
2023/05/23 01:09:47;;;;;;;111.40;55.60;;;15.60;99.90;;;-148.53;100.00;63986.66;5064487;28;20040;-74
2023/05/23 01:12:28;;;;;;;121.72;59.72;;;15.60;99.90;;;-148.53;100.00;63986.66;5059565;28;20064;-75
2023/05/23 01:15:09;;;;;;;119.03;59.83;;;15.50;99.90;;;-148.53;100.00;63986.66;5053859;28;20116;-75
2023/05/23 01:17:48;;;;;;;130.52;61.65;;;15.60;99.90;;;-148.53;100.00;63986.66;5064525;28;20530;-75
2023/05/23 01:20:35;;;;;;;121.85;61.88;;;15.50;99.90;;;-148.53;100.00;63986.66;5060669;28;20108;-75
2023/05/23 01:23:20;;;;;;;133.15;65.28;;;15.60;99.90;;;-148.53;100.00;63986.66;5054394;28;20044;-74
2023/05/23 01:26:22;;;;;;;126.75;67.10;;;15.50;99.90;;;-148.53;100.00;63986.66;5057311;28;20140;-76
2023/05/23 01:28:55;;;;;;;141.63;73.97;;;15.50;99.90;;;-148.53;100.00;63986.66;5040480;28;20175;-75
2023/05/23 01:31:23;;;;;;;138.10;75.60;;;15.40;99.90;;;-148.53;100.00;63986.66;5054554;28;20044;-75
2023/05/23 01:33:52;;;;;;;144.00;78.25;;;15.30;99.90;;;-148.53;100.00;63986.66;5068074;28;20029;-76
2023/05/23 01:36:18;;;;;;;141.05;78.53;;;15.20;99.90;;;-148.53;100.00;63986.66;5054624;28;20520;-75
2023/05/23 01:38:44;;;;;;;141.05;77.80;;;15.10;99.90;;;-148.53;100.00;63986.66;5058705;28;20400;-75
2023/05/23 01:41:10;;;;;;;124.03;72.10;;;15.00;99.90;;;-148.53;100.00;63986.66;5045432;28;20044;-76
2023/05/23 01:43:37;;;;;;;137.00;75.15;;;14.90;99.90;;;-148.53;100.00;63986.66;5060898;28;20048;-76
2023/05/23 01:46:06;;;;;;;125.03;70.32;;;14.80;99.90;;;-148.53;100.00;63986.66;5057088;28;20021;-74
2023/05/23 01:48:33;;;;;;;123.28;71.53;;;14.80;99.90;;;-148.53;100.00;63986.66;5052317;28;20132;-75
2023/05/23 01:51:00;;;;;;;113.00;68.15;;;14.70;99.90;;;-148.53;100.00;63986.66;5053104;28;20557;-75
2023/05/23 01:53:30;;;;;;;111.90;65.40;;;14.60;99.90;;;-148.53;100.00;63986.66;5080722;28;20082;-75
2023/05/23 01:55:56;;;;;;;115.63;66.45;;;14.60;99.90;;;-148.53;100.00;63986.66;5054152;28;20039;-75
2023/05/23 01:58:22;;;;;;;105.70;65.32;;;14.50;99.90;;;-148.53;100.00;63986.66;5058700;28;20430;-75
2023/05/23 02:00:48;;;;;;;104.43;63.10;;;14.50;99.90;;;-148.53;100.00;63986.66;5052530;28;20029;-75
2023/05/23 02:03:14;;;;;;;104.13;62.67;;;14.50;99.90;;;-148.53;100.00;63986.66;5053609;28;20055;-75
2023/05/23 02:05:40;;;;;;;99.72;60.30;;;14.50;99.90;;;-148.53;100.00;63986.66;5058234;28;20045;-75
2023/05/23 02:08:06;;;;;;;102.93;61.75;;;14.50;99.90;;;-148.53;100.00;63986.66;5053953;28;20032;-75
2023/05/23 02:10:32;;;;;;;87.95;56.67;;;14.40;99.90;;;-148.53;100.00;63986.66;5053934;28;20587;-74
2023/05/23 02:12:59;;;;;;;83.63;53.17;;;14.30;99.90;;;-148.53;100.00;63986.66;5052311;28;20072;-75
2023/05/23 02:15:27;;;;;;;81.20;51.13;;;14.30;99.90;;;-148.53;100.00;63986.66;5052543;28;20033;-75
2023/05/23 02:17:52;;;;;;;82.72;51.70;;;14.30;99.90;;;-148.53;100.00;63986.66;5086486;28;20119;-75
2023/05/23 02:20:18;;;;;;;83.03;52.78;;;14.20;99.90;;;-148.53;100.00;63986.66;5053758;28;20041;-75
2023/05/23 02:22:47;;;;;;;84.35;52.13;;;14.20;99.90;;;-148.53;100.00;63986.66;5058063;28;20032;-74
2023/05/23 02:25:12;;;;;;;79.50;52.03;;;14.20;99.90;;;-148.53;100.00;63986.66;5057650;28;20028;-74
2023/05/23 02:27:38;;;;;;;76.80;49.38;;;14.20;99.90;;;-148.53;100.00;63986.66;5073840;28;20037;-75
2023/05/23 02:30:05;;;;;;;73.03;44.75;;;14.20;99.90;;;-148.53;100.00;63986.66;5058239;28;20052;-74
2023/05/23 02:32:31;;;;;;;52.13;36.40;;;14.10;99.90;;;-148.53;100.00;63986.66;5046131;28;20032;-74
2023/05/23 02:34:57;;;;;;;47.63;33.00;;;14.10;99.90;;;-148.53;100.00;63986.66;5054125;28;20392;-74
2023/05/23 02:37:22;;;;;;;39.72;28.67;;;14.10;99.90;;;-148.53;100.00;63986.66;5054097;28;20036;-75
2023/05/23 02:39:48;;;;;;;37.97;28.10;;;14.10;99.90;;;-148.53;100.00;63986.66;5057590;28;20491;-76
2023/05/23 02:42:14;;;;;;;37.80;28.05;;;14.00;99.90;;;-148.53;100.00;63986.66;5068488;28;20479;-74
2023/05/23 02:44:39;;;;;;;37.38;28.30;;;14.00;99.90;;;-148.53;100.00;63986.66;5040729;28;20686;-75
2023/05/23 02:47:06;;;;;;;44.53;29.45;;;14.00;99.90;;;-148.53;100.00;63986.66;5057177;28;20357;-75
2023/05/23 02:49:33;;;;;;;37.33;26.10;;;14.00;99.90;;;-148.53;100.00;63986.66;5051568;28;20021;-75
2023/05/23 02:51:58;;;;;;;40.55;27.25;;;14.00;99.90;;;-148.53;100.00;63986.66;5042212;28;20039;-76
2023/05/23 02:54:24;;;;;;;37.75;27.08;;;13.90;99.90;;;-148.53;100.00;63986.66;5051285;28;20036;-75
2023/05/23 02:56:52;;;;;;;37.67;26.52;;;13.90;99.90;;;-148.53;100.00;63986.66;5051815;28;20119;-75
2023/05/23 02:59:18;;;;;;;36.28;26.30;;;13.90;99.90;;;-148.53;100.00;63986.66;5051570;28;20025;-76
2023/05/23 03:01:44;;;;;;;34.42;25.38;;;14.00;99.90;;;-148.53;100.00;63986.66;5066962;28;20136;-75
2023/05/23 03:04:09;;;;;;;34.25;25.27;;;14.00;99.90;;;-148.53;100.00;63986.66;5052975;28;20029;-76
2023/05/23 03:06:35;;;;;;;35.40;25.73;;;14.00;99.90;;;-148.53;100.00;63986.66;5052894;28;20032;-75
2023/05/23 03:09:01;;;;;;;39.30;25.88;;;13.90;99.90;;;-148.53;100.00;63986.66;5051613;28;20036;-75
2023/05/23 03:11:28;;;;;;;35.65;26.75;;;14.00;99.90;;;-148.53;100.00;63986.66;5054537;28;20369;-75
2023/05/23 03:13:55;;;;;;;34.73;25.97;;;13.90;99.90;;;-148.53;100.00;63986.66;5052743;28;20472;-75
2023/05/23 03:16:22;;;;;;;33.60;24.60;;;14.00;99.90;;;-148.53;100.00;63986.66;5050951;28;20614;-75
2023/05/23 03:18:48;;;;;;;33.15;23.63;;;13.90;99.90;;;-148.53;100.00;63986.66;5052345;28;20036;-76
2023/05/23 03:21:14;;;;;;;35.65;24.90;;;13.90;99.90;;;-148.53;100.00;63986.66;5051507;28;20040;-74
2023/05/23 03:23:40;;;;;;;35.17;24.58;;;13.80;99.90;;;-148.53;100.00;63986.66;5046597;28;20037;-75
2023/05/23 03:26:06;;;;;;;32.08;21.92;;;13.80;99.90;;;-148.53;100.00;63986.66;5050954;28;20059;-75
2023/05/23 03:28:32;;;;;;;33.38;23.05;;;13.80;99.90;;;-148.53;100.00;63986.66;5056110;28;20036;-75
2023/05/23 03:30:58;;;;;;;31.73;23.20;;;13.80;99.90;;;-148.53;100.00;63986.66;5052445;28;20036;-75
2023/05/23 03:33:23;;;;;;;31.92;23.70;;;13.70;99.90;;;-148.53;100.00;63986.66;5055966;28;20045;-75
2023/05/23 03:35:50;;;;;;;33.08;23.40;;;13.70;99.90;;;-148.53;100.00;63986.66;5050356;28;20139;-74
2023/05/23 03:38:16;;;;;;;40.78;26.05;;;13.70;99.90;;;-148.53;100.00;63986.66;5058188;28;20039;-75
2023/05/23 03:40:41;;;;;;;36.45;24.48;;;13.70;99.90;;;-148.53;100.00;63986.66;5057136;28;20036;-74
2023/05/23 03:43:08;;;;;;;38.00;25.02;;;13.70;99.90;;;-148.53;100.00;63986.66;5052312;28;20052;-74
2023/05/23 03:45:36;;;;;;;35.25;26.15;;;13.70;99.90;;;-148.53;100.00;63986.66;5050531;28;20048;-74
2023/05/23 03:48:07;;;;;;;35.83;26.05;;;13.70;99.90;;;-148.53;100.00;63986.66;5050394;28;20028;-74
2023/05/23 03:50:34;;;;;;;40.03;27.20;;;13.70;99.90;;;-148.53;100.00;63986.66;5056324;28;20376;-75
2023/05/23 03:53:00;;;;;;;43.20;28.13;;;13.70;99.90;;;-148.53;100.00;63986.66;5070512;28;20044;-74
2023/05/23 03:55:26;;;;;;;40.15;28.70;;;13.70;99.90;;;-148.53;100.00;63986.66;5051078;28;20394;-74
2023/05/23 03:57:52;;;;;;;38.60;28.33;;;13.70;99.90;;;-148.53;100.00;63986.66;5067663;28;20035;-75
2023/05/23 04:00:19;;;;;;;40.88;28.73;;;13.80;99.90;;;-148.53;100.00;63986.66;5070089;28;20056;-75
2023/05/23 04:02:48;;;;;;;39.58;27.73;;;13.80;99.90;;;-148.53;100.00;63986.66;5066329;28;20484;-76
2023/05/23 04:05:17;;;;;;;41.28;28.20;;;13.80;99.90;;;-148.53;100.00;63986.66;5081466;28;20071;-75
2023/05/23 04:07:43;;;;;;;41.13;27.95;;;13.80;99.90;;;-148.53;100.00;63986.66;5057873;28;20037;-74
2023/05/23 04:10:11;;;;;;;37.25;26.65;;;13.80;99.90;;;-148.53;100.00;63986.66;5067945;28;20500;-75
2023/05/23 04:12:40;;;;;;;38.10;26.70;;;13.80;99.90;;;-148.53;100.00;63986.66;5064831;28;20049;-75
2023/05/23 04:15:08;;;;;;;39.97;25.88;;;13.80;99.90;;;-148.53;100.00;63986.66;5059922;28;20029;-75
2023/05/23 04:17:37;;;;;;;37.53;27.02;;;13.80;99.90;;;-148.53;100.00;63986.66;5088219;28;20040;-75
2023/05/23 04:20:08;;;;;;;34.70;24.40;;;13.80;99.90;;;-148.53;100.00;63986.66;5060112;28;20116;-75
2023/05/23 04:22:34;;;;;;;34.40;23.88;;;13.80;99.90;;;-148.53;100.00;63986.66;5033319;28;20032;-74
2023/05/23 04:25:02;;;;;;;33.88;22.50;;;13.80;99.90;;;-148.53;100.00;63986.66;5066824;28;20496;-75
2023/05/23 04:27:31;;;;;;;32.53;21.90;;;13.80;99.90;;;-148.53;100.00;63986.66;5044635;28;20110;-75
2023/05/23 04:29:59;;;;;;;33.53;21.55;;;13.80;99.90;;;-148.53;100.00;63986.66;5049859;28;20493;-75
2023/05/23 04:32:25;;;;;;;30.88;22.30;;;13.80;99.90;;;-148.53;100.00;63986.66;5069142;28;20400;-75
2023/05/23 04:34:52;;;;;;;29.23;21.70;;;13.90;99.90;;;-148.53;100.00;63986.66;5050211;28;20033;-75
2023/05/23 04:37:24;;;;;;;30.35;21.27;;;13.90;99.90;;;-148.53;100.00;63986.66;5071279;28;20281;-75
2023/05/23 04:39:51;;;;;;;28.67;20.40;;;13.80;99.90;;;-148.53;100.00;63986.66;5058738;28;20118;-75
2023/05/23 04:42:29;;;;;;;26.45;17.55;;;13.90;99.90;;;-148.53;100.00;63986.66;5100704;28;20033;-75
2023/05/23 04:45:02;;;;;;;25.70;17.92;;;13.90;99.90;;;-148.53;100.00;63986.66;5045948;28;20091;-76
2023/05/23 04:47:48;;;;;;;23.67;16.85;;;13.90;99.90;;;-148.53;100.00;63986.66;5052685;28;20036;-75
2023/05/23 04:50:31;;;;;;;23.30;14.68;;;13.90;99.90;;;-148.53;100.00;63986.66;5050368;28;20040;-75
2023/05/23 04:52:57;;;;;;;22.25;16.00;;;13.90;99.90;;;-148.53;100.00;63986.66;5052364;28;20029;-75
2023/05/23 04:55:23;;;;;;;22.80;15.93;;;13.90;99.90;;;-148.53;100.00;63986.66;5068522;28;20129;-75
2023/05/23 04:57:49;;;;;;;22.58;15.18;;;13.90;99.90;;;-148.53;100.00;63986.66;5067851;28;20091;-74
2023/05/23 05:00:16;;;;;;;21.55;15.60;;;13.90;99.90;;;-148.53;100.00;63986.66;5083588;28;20082;-74
2023/05/23 05:02:42;;;;;;;22.50;15.52;;;13.90;99.90;;;-148.53;100.00;63986.66;5049998;28;20078;-75
2023/05/23 05:05:08;;;;;;;24.25;16.33;;;13.90;99.90;;;-148.53;100.00;63986.66;5062135;28;20107;-74
2023/05/23 05:07:34;;;;;;;22.67;16.10;;;13.90;99.90;;;-148.53;100.00;63986.66;5066733;28;20029;-74
2023/05/23 05:10:02;;;;;;;21.05;15.00;;;13.90;99.90;;;-148.53;100.00;63986.66;5072533;28;20056;-74
2023/05/23 05:12:30;;;;;;;24.75;14.65;;;13.90;99.90;;;-148.53;100.00;63986.66;5049672;28;20041;-75
2023/05/23 05:14:56;;;;;;;20.95;14.20;;;13.90;99.90;;;-148.53;100.00;63986.66;5059521;28;20036;-75
2023/05/23 05:17:22;;;;;;;21.58;14.35;;;13.90;99.90;;;-148.53;100.00;63986.66;5065320;28;20029;-75
2023/05/23 05:20:07;;;;;;;20.65;14.40;;;13.90;99.90;;;-148.53;100.00;63986.66;5052133;28;20048;-73
2023/05/23 05:22:41;;;;;;;20.63;14.57;;;13.90;99.90;;;-148.53;100.00;63986.66;5068108;28;20032;-73
2023/05/23 05:25:10;;;;;;;22.60;14.93;;;14.00;99.90;;;-148.53;100.00;63986.66;5092485;28;20029;-73
2023/05/23 05:27:36;;;;;;;21.73;14.68;;;13.90;99.90;;;-148.53;100.00;63986.66;5064314;28;20035;-73
2023/05/23 05:30:08;;;;;;;23.02;15.35;;;13.80;99.90;;;-148.53;100.00;63986.66;5053484;28;20412;-75
2023/05/23 05:32:45;;;;;;;22.13;14.68;;;13.90;99.90;;;-148.53;100.00;63986.66;5043983;28;20393;-73
2023/05/23 05:35:12;;;;;;;20.98;15.27;;;13.90;99.90;;;-148.53;100.00;63986.66;5084081;28;20572;-75
2023/05/23 05:37:39;;;;;;;25.65;16.00;;;13.80;99.90;;;-148.53;100.00;63986.66;5067062;28;20076;-76
2023/05/23 05:40:07;;;;;;;25.08;15.38;;;13.80;99.90;;;-148.53;100.00;63986.66;5055790;28;20033;-75
2023/05/23 05:42:36;;;;;;;22.13;15.23;;;13.80;99.90;;;-148.53;100.00;63986.66;5059558;28;20044;-75
2023/05/23 05:45:03;;;;;;;21.33;15.38;;;13.80;99.90;;;-148.53;100.00;63986.66;5056777;28;20035;-75
2023/05/23 05:47:32;;;;;;;25.40;15.73;;;13.70;99.90;;;-148.53;100.00;63986.66;5081335;28;20059;-76
2023/05/23 05:49:59;;;;;;;24.30;15.85;;;13.70;99.90;;;-148.53;100.00;63986.66;5074549;28;20035;-75
2023/05/23 05:52:25;;;;;;;24.08;15.90;;;13.70;99.90;;;-148.53;100.00;63986.66;5056382;28;20033;-76
2023/05/23 05:54:52;;;;;;;22.85;15.55;;;13.80;99.90;;;-148.53;100.00;63986.66;5071816;28;20132;-75
2023/05/23 05:57:20;;;;;;;22.70;15.60;;;13.70;99.90;;;-148.53;100.00;63986.66;5062877;28;20033;-75
2023/05/23 05:59:46;;;;;;;22.33;15.68;;;13.70;99.90;;;-148.53;100.00;63986.66;5044925;28;20080;-74
2023/05/23 06:02:13;;;;;;;20.85;15.68;;;13.80;99.90;;;-148.53;100.00;63986.66;5069406;28;20450;-75
2023/05/23 06:04:40;;;;;;;20.92;14.48;;;13.70;99.90;;;-148.53;100.00;63986.66;5043167;28;20445;-74
2023/05/23 06:07:05;;;;;;;22.50;14.80;;;13.70;99.90;;;-148.53;100.00;63986.66;5059244;28;20044;-75
2023/05/23 06:09:31;;;;;;;18.45;14.20;;;13.70;99.90;;;-148.53;100.00;63986.66;5077740;28;20033;-75
2023/05/23 06:11:58;;;;;;;20.67;15.10;;;13.70;99.90;;;-148.53;100.00;63986.66;5055564;28;20040;-75
2023/05/23 06:14:25;;;;;;;;;;;13.60;99.90;;;-148.53;100.00;63986.66;5061503;28;20040;-75
2023/05/23 06:16:50;;;;;;;20.23;14.57;;;13.60;99.90;;;-148.53;100.00;63986.66;5063602;28;19916;-74
2023/05/23 06:19:16;;;;;;;19.17;14.32;;;13.60;99.90;;;-148.53;100.00;63986.66;5066183;28;20039;-74
2023/05/23 06:21:42;;;;;;;21.58;16.05;;;13.60;99.90;;;-148.53;100.00;63986.66;5088698;28;20150;-73
2023/05/23 06:24:09;;;;;;;25.48;16.25;;;13.70;99.90;;;-148.53;100.00;63986.66;5066165;28;20433;-74
2023/05/23 06:26:36;;;;;;;22.65;15.60;;;13.70;99.90;;;-148.53;100.00;63986.66;5068444;28;20032;-74
2023/05/23 06:29:02;;;;;;;25.10;16.00;;;13.60;99.90;;;-148.53;100.00;63986.66;5068514;28;20464;-74
2023/05/23 06:31:28;;;;;;;23.48;17.95;;;13.70;99.90;;;-148.53;100.00;63986.66;5071450;28;20487;-73
2023/05/23 06:33:54;;;;;;;24.05;18.48;;;13.60;99.90;;;-148.53;100.00;63986.66;5071757;28;20039;-74
2023/05/23 06:36:19;;;;;;;27.90;19.38;;;13.60;99.90;;;-148.53;100.00;63986.66;5077275;28;20554;-75
2023/05/23 06:38:47;;;;;;;26.52;19.40;;;13.60;99.90;;;-148.53;100.00;63986.66;5070834;28;20047;-74
2023/05/23 06:41:13;;;;;;;28.17;19.02;;;13.60;99.90;;;-148.53;100.00;63986.66;5084901;28;20044;-75
2023/05/23 06:43:38;;;;;;;29.55;20.20;;;13.70;99.90;;;-148.53;100.00;63986.66;5070376;28;20075;-75
2023/05/23 06:46:21;;;;;;;27.77;19.77;;;13.70;99.90;;;-148.53;100.00;63986.66;5069510;28;20035;-74
2023/05/23 06:48:47;;;;;;;27.70;19.67;;;13.70;99.90;;;-148.53;100.00;63986.66;5068109;28;20028;-74
2023/05/23 06:51:14;;;;;;;24.02;17.35;;;13.70;99.90;;;-148.53;100.00;63986.66;5075096;28;20506;-75
2023/05/23 06:53:40;;;;;;;24.58;17.38;;;13.70;99.90;;;-148.53;100.00;63986.66;5073975;28;20040;-75
2023/05/23 06:56:06;;;;;;;28.02;18.73;;;13.70;99.90;;;-148.53;100.00;63986.66;5062164;28;20029;-75
2023/05/23 06:58:38;;;;;;;22.77;17.10;;;13.80;99.90;;;-148.53;100.00;63986.66;5063360;28;20032;-75
2023/05/23 07:01:06;;;;;;;21.67;15.90;;;13.80;99.90;;;-148.53;100.00;63986.66;5063572;28;20827;-75
2023/05/23 07:03:37;;;;;;;17.10;12.65;;;13.80;99.90;;;-148.53;100.00;63986.66;5068994;28;20161;-75
2023/05/23 07:06:05;;;;;;;19.98;15.63;;;13.70;99.90;;;-148.53;100.00;63986.66;5062672;28;20078;-76
2023/05/23 07:08:32;;;;;;;20.15;14.82;;;13.70;99.90;;;-148.53;100.00;63986.66;5053466;28;20032;-76
2023/05/23 07:11:00;;;;;;;20.92;16.15;;;13.80;99.90;;;-148.53;100.00;63986.66;5062914;28;20128;-75
2023/05/23 07:13:48;;;;;;;20.75;15.45;;;13.70;99.90;;;-148.53;100.00;63986.66;5052396;28;20041;-75
2023/05/23 07:16:32;;;;;;;19.38;15.00;;;13.70;99.90;;;-148.53;100.00;63986.66;5051471;28;20041;-76
2023/05/23 07:19:02;;;;;;;16.92;12.80;;;13.60;99.90;;;-148.53;100.00;63986.66;5051442;28;20036;-75
2023/05/23 07:21:28;;;;;;;16.58;13.15;;;13.60;99.90;;;-148.53;100.00;63986.66;5051126;28;20064;-75
2023/05/23 07:23:54;;;;;;;17.60;12.93;;;13.60;99.90;;;-148.53;100.00;63986.66;5056517;28;20021;-76
2023/05/23 07:26:21;;;;;;;18.40;12.05;;;13.60;99.90;;;-148.53;100.00;63986.66;5038052;28;20029;-75
2023/05/23 07:28:51;;;;;;;15.40;10.73;;;13.60;99.90;;;-148.53;100.00;63986.66;5062927;28;20106;-75
2023/05/23 07:31:17;;;;;;;13.32;10.15;;;13.60;99.90;;;-148.53;100.00;63986.66;5050700;28;20049;-76
2023/05/23 07:33:43;;;;;;;11.60;8.43;;;13.60;99.90;;;-148.53;100.00;63986.66;5052859;28;20033;-77
2023/05/23 07:36:12;;;;;;;12.60;9.13;;;13.60;99.90;;;-148.53;100.00;63986.66;5056540;28;20415;-77
2023/05/23 07:38:38;;;;;;;10.60;8.40;;;13.70;99.90;;;-148.53;100.00;63986.66;5058794;28;20040;-76
2023/05/23 07:41:04;;;;;;;10.35;7.78;;;13.70;99.90;;;-148.53;100.00;63986.66;5058087;28;20052;-76
2023/05/23 07:43:29;;;;;;;10.15;7.90;;;13.60;99.90;;;-148.53;100.00;63986.66;5057232;28;20037;-75
2023/05/23 07:45:55;;;;;;;10.05;7.25;;;13.60;99.90;;;-148.53;100.00;63986.66;5051334;28;20033;-75
2023/05/23 07:48:21;;;;;;;11.35;7.38;;;13.60;99.90;;;-148.53;100.00;63986.66;5068471;28;20038;-77
2023/05/23 07:50:47;;;;;;;9.60;7.25;;;13.60;99.90;;;-148.53;100.00;63986.66;5065779;28;20093;-75
2023/05/23 07:53:13;;;;;;;11.15;8.00;;;13.50;99.90;;;-148.53;100.00;63986.66;5045933;28;20029;-75
2023/05/23 07:55:40;;;;;;;13.30;9.13;;;13.50;99.90;;;-148.53;100.00;63986.66;5064783;28;20082;-75
2023/05/23 07:58:06;;;;;;;14.05;8.75;;;13.50;99.90;;;-148.53;100.00;63986.66;5066989;28;20024;-75
2023/05/23 08:00:32;;;;;;;13.80;9.02;;;13.50;99.90;;;-148.53;100.00;63986.66;5060076;28;20036;-75
2023/05/23 08:03:06;;;;;;;11.25;9.32;;;13.50;99.90;;;-148.53;100.00;63986.66;5072015;28;20616;-74
2023/05/23 08:05:38;;;;;;;14.50;8.23;;;13.60;99.90;;;-148.53;100.00;63986.66;5055742;28;20057;-75
2023/05/23 08:08:04;;;;;;;9.95;7.32;;;13.60;99.90;;;-148.53;100.00;63986.66;5063918;28;20059;-75
2023/05/23 08:10:30;;;;;;;8.65;6.00;;;13.50;99.90;;;-148.53;100.00;63986.66;5059176;28;20033;-74
2023/05/23 08:13:05;;;;;;;8.68;6.32;;;13.40;99.90;;;-148.53;100.00;63986.66;5059668;28;20030;-74
2023/05/23 08:15:34;;;;;;;10.35;7.20;;;13.30;99.90;;;-148.53;100.00;63986.66;5064457;28;20064;-75
2023/05/23 08:18:08;;;;;;;11.93;8.07;;;13.20;99.90;;;-148.53;100.00;63986.66;5059515;28;20025;-74
2023/05/23 08:20:33;;;;;;;12.35;9.57;;;13.10;99.90;;;-148.53;100.00;63986.66;5068209;28;20043;-75
2023/05/23 08:23:01;;;;;;;12.18;9.35;;;13.10;99.90;;;-148.53;100.00;63986.66;5063566;28;20369;-74
2023/05/23 08:25:31;;;;;;;17.75;11.63;;;13.00;99.90;;;-148.53;100.00;63986.66;5063331;28;20040;-75
2023/05/23 08:27:58;;;;;;;16.98;11.93;;;13.00;99.90;;;-148.53;100.00;63986.66;5060677;28;20033;-75
2023/05/23 08:30:38;;;;;;;19.98;12.40;;;13.00;99.90;;;-148.53;100.00;63986.66;5056432;28;20493;-77
2023/05/23 08:33:05;;;;;;;19.98;13.32;;;13.00;99.90;;;-148.53;100.00;63986.66;5052578;28;20036;-76
2023/05/23 08:35:34;;;;;;;20.30;13.18;;;13.10;99.90;;;-148.53;100.00;63986.66;5055326;28;20044;-75
2023/05/23 08:38:04;;;;;;;21.20;13.50;;;13.00;99.90;;;-148.53;100.00;63986.66;5074033;28;20115;-75
2023/05/23 08:40:31;;;;;;;20.45;14.48;;;13.00;99.90;;;-148.53;100.00;63986.66;5060326;28;20033;-75
2023/05/23 08:43:06;;;;;;;20.50;12.88;;;13.10;99.90;;;-148.53;100.00;63986.66;5062398;28;20029;-75
2023/05/23 08:45:33;;;;;;;20.05;13.35;;;13.00;99.90;;;-148.53;100.00;63986.66;5058180;28;20036;-75
2023/05/23 08:48:03;;;;;;;18.40;11.77;;;13.00;99.90;;;-148.53;100.00;63986.66;5039717;28;20033;-77
2023/05/23 08:50:31;;;;;;;20.65;13.38;;;13.00;99.90;;;-148.53;100.00;63986.66;5039148;28;20420;-76
2023/05/23 08:52:58;;;;;;;16.85;12.60;;;13.00;99.90;;;-148.53;100.00;63986.66;5051276;28;20029;-76
2023/05/23 08:55:29;;;;;;;23.60;14.18;;;13.00;99.90;;;-148.53;100.00;63986.66;5051216;28;20029;-76
2023/05/23 08:58:00;;;;;;;21.85;13.02;;;13.10;99.90;;;-148.53;100.00;63986.66;5065816;28;20037;-76
2023/05/23 09:00:35;;;;;;;18.38;13.93;;;13.00;99.90;;;-148.53;100.00;63986.66;5045912;28;20427;-76
2023/05/23 09:03:02;;;;;;;19.27;13.57;;;13.00;99.90;;;-148.53;100.00;63986.66;5055928;28;20033;-76
2023/05/23 09:05:41;;;;;;;20.90;13.30;;;12.90;99.90;;;-148.53;100.00;63986.66;5080033;28;20041;-75
2023/05/23 09:08:08;;;;;;;20.48;13.90;;;12.90;99.90;;;-148.53;100.00;63986.66;5069811;28;20032;-75
2023/05/23 09:10:34;;;;;;;18.90;13.48;;;12.90;99.90;;;-148.53;100.00;63986.66;5064366;28;20041;-75
2023/05/23 09:13:03;;;;;;;28.13;15.60;;;12.90;99.90;;;-148.53;100.00;63986.66;5067568;28;20025;-76
2023/05/23 09:15:30;;;;;;;24.85;13.15;;;12.90;99.90;;;-148.53;100.00;63986.66;5059355;28;20060;-75
2023/05/23 09:18:03;;;;;;;30.33;17.73;;;12.80;99.90;;;-148.53;100.00;63986.66;5070399;28;20028;-77
2023/05/23 09:20:29;;;;;;;22.75;15.50;;;12.70;99.90;;;-148.53;100.00;63986.66;5063884;28;20059;-76
2023/05/23 09:22:59;;;;;;;31.15;18.52;;;12.60;99.90;;;-148.53;100.00;63986.66;5070690;28;20033;-76
2023/05/23 09:25:25;;;;;;;33.92;19.08;;;12.60;99.90;;;-148.53;100.00;63986.66;5052796;28;20033;-76
2023/05/23 09:27:55;;;;;;;29.52;14.98;;;12.60;99.90;;;-148.53;100.00;63986.66;5053460;28;20064;-77
2023/05/23 09:30:20;;;;;;;28.38;17.90;;;12.60;99.90;;;-148.53;100.00;63986.66;5075979;28;20045;-75
2023/05/23 09:33:02;;;;;;;30.40;15.52;;;12.60;99.90;;;-148.53;100.00;63986.66;5094476;28;20067;-75
2023/05/23 09:35:28;;;;;;;33.33;18.35;;;12.50;99.90;;;-148.53;100.00;63986.66;5050909;28;20107;-75
2023/05/23 09:37:55;;;;;;;33.33;16.77;;;12.50;99.90;;;-148.53;100.00;63986.66;5068784;28;20112;-75
2023/05/23 09:40:20;;;;;;;24.93;14.43;;;12.40;99.90;;;-148.53;100.00;63986.66;5068546;28;20392;-75
2023/05/23 09:42:53;;;;;;;29.67;16.85;;;12.40;99.90;;;-148.53;100.00;63986.66;5071089;28;20482;-75
2023/05/23 09:45:19;;;;;;;22.52;13.60;;;12.50;99.90;;;-148.53;100.00;63986.66;5071953;28;20079;-75
2023/05/23 09:47:54;;;;;;;25.45;13.98;;;12.40;99.90;;;-148.53;100.00;63986.66;5063981;28;20059;-75
2023/05/23 09:50:21;;;;;;;23.77;12.25;;;12.50;99.90;;;-148.53;100.00;63986.66;5054515;28;20040;-75
2023/05/23 09:52:47;;;;;;;17.70;10.33;;;12.50;99.90;;;-148.53;100.00;63986.66;5049927;28;20037;-74